Time;durP1;ratioP1;P1;durP2;ratioP2;P2;SDS_P1;SDS_P2;PMS_P1;PMS_P2;Temp;Humidity;BMP_temperature;BMP_pressure;BME280_temperature;BME280_humidity;BME280_pressure;Samples;Min_cycle;Max_cycle;Signal;HPM_P1;HPM_P2
2021/04/26 00:00:06;;;;;;;0.13;0.13;;;;;;;1.99;93.63;100635.01;1739708;82;21160;-45
2021/04/26 00:02:35;;;;;;;0.20;0.20;;;;;;;1.93;93.63;100632.67;1739482;82;21208;-45
2021/04/26 00:05:06;;;;;;;0.95;0.95;;;;;;;1.86;93.65;100636.45;1740014;82;21570;-44
2021/04/26 00:07:35;;;;;;;0.13;0.13;;;;;;;1.79;93.66;100635.14;1740221;82;29650;-45
2021/04/26 00:10:05;;;;;;;4.08;0.42;;;;;;;1.72;93.68;100630.31;1739941;82;22487;-44
2021/04/26 00:12:34;;;;;;;0.90;0.90;;;;;;;1.65;93.79;100628.99;1739998;82;21152;-45
2021/04/26 00:15:08;;;;;;;0.30;0.30;;;;;;;1.58;93.88;100626.86;1712142;82;21155;-44
2021/04/26 00:17:38;;;;;;;0.35;0.35;;;;;;;1.53;94.00;100625.33;1740046;82;21164;-44
2021/04/26 00:20:08;;;;;;;1.20;0.80;;;;;;;1.48;94.18;100622.45;1739943;82;21188;-44
2021/04/26 00:22:37;;;;;;;0.23;0.20;;;;;;;1.44;94.25;100626.64;1740098;81;21167;-44
2021/04/26 00:25:06;;;;;;;0.62;0.62;;;;;;;1.38;94.34;100630.17;1740026;81;21120;-44
2021/04/26 00:27:35;;;;;;;0.40;0.25;;;;;;;1.33;94.43;100627.30;1740096;82;21187;-44
2021/04/26 00:30:07;;;;;;;0.42;0.42;;;;;;;1.28;94.50;100627.41;1714581;82;21168;-44
2021/04/26 00:32:35;;;;;;;0.40;0.40;;;;;;;1.24;94.50;100622.17;1739749;82;29287;-44
2021/04/26 00:35:05;;;;;;;0.35;0.35;;;;;;;1.19;94.52;100623.34;1740006;82;21186;-44
2021/04/26 00:37:33;;;;;;;0.10;0.10;;;;;;;1.14;94.58;100623.16;1740087;82;21112;-45
2021/04/26 00:40:00;;;;;;;0.30;0.30;;;;;;;1.09;94.67;100620.27;1740070;81;21131;-44
2021/04/26 00:42:28;;;;;;;0.53;0.53;;;;;;;1.03;94.72;100611.69;1739890;82;21147;-45
2021/04/26 00:44:55;;;;;;;0.50;0.50;;;;;;;0.98;94.70;100612.31;1739983;82;21128;-44
2021/04/26 00:47:23;;;;;;;0.23;0.23;;;;;;;0.93;94.72;100604.59;1727095;83;21177;-44
2021/04/26 00:49:50;;;;;;;0.85;0.85;;;;;;;0.86;94.80;100608.62;1758838;81;21114;-44
2021/04/26 00:52:18;;;;;;;0.10;0.10;;;;;;;0.80;94.98;100599.55;1740065;81;21174;-44
2021/04/26 00:54:45;;;;;;;0.15;0.15;;;;;;;0.74;95.15;100595.03;1739475;82;21583;-44
2021/04/26 00:57:12;;;;;;;0.10;0.10;;;;;;;0.70;95.26;100595.13;1714682;82;21159;-44
2021/04/26 00:59:40;;;;;;;0.10;0.10;;;;;;;0.67;95.32;100587.49;1689642;82;21476;-44
2021/04/26 01:02:08;;;;;;;1.85;0.85;;;;;;;0.62;95.38;100584.61;1691499;82;21183;-44
2021/04/26 01:04:36;;;;;;;0.10;0.10;;;;;;;0.57;95.50;100584.39;1739728;82;21166;-44
2021/04/26 01:07:05;;;;;;;0.13;0.13;;;;;;;0.53;95.61;100581.83;1739629;82;21132;-44
2021/04/26 01:09:33;;;;;;;0.20;0.20;;;;;;;0.49;95.68;100576.55;1739596;81;21180;-44
2021/04/26 01:12:14;;;;;;;0.28;0.28;;;;;;;0.47;95.75;100579.97;1739597;82;21123;-45
2021/04/26 01:14:53;;;;;;;0.20;0.20;;;;;;;0.45;95.84;100577.50;1739620;82;21117;-45
2021/04/26 01:17:23;;;;;;;0.47;0.47;;;;;;;0.41;95.89;100581.11;1739167;82;21497;-44
2021/04/26 01:20:28;;;;;;;1.17;0.70;;;;;;;0.37;95.94;100578.55;1739559;82;21149;-44
2021/04/26 01:23:53;;;;;;;0.35;0.30;;;;;;;0.35;96.05;100575.24;1739684;82;21174;-44
2021/04/26 01:26:44;;;;;;;0.72;0.72;;;;;;;0.34;96.21;100569.54;1739702;82;21495;-44
2021/04/26 01:29:19;;;;;;;1.62;1.22;;;;;;;0.33;96.32;100567.90;1725264;82;21541;-44
2021/04/26 01:32:12;;;;;;;0.30;0.30;;;;;;;0.32;96.38;100558.20;1714089;82;21076;-44
2021/04/26 01:34:39;;;;;;;1.30;1.20;;;;;;;0.30;96.44;100562.95;1739729;82;21604;-44
2021/04/26 01:37:17;;;;;;;0.60;0.60;;;;;;;0.32;96.53;100562.23;1847963;76;29058;-44
2021/04/26 01:39:46;;;;;;;0.35;0.30;;;;;;;0.27;96.54;100563.34;1792111;78;21142;-44
2021/04/26 01:42:15;;;;;;;2.37;0.62;;;;;;;0.25;96.69;100562.75;1785922;80;21162;-44
2021/04/26 01:44:43;;;;;;;0.20;0.20;;;;;;;0.26;96.81;100561.70;1755675;80;21620;-43
2021/04/26 01:47:11;;;;;;;1.22;0.90;;;;;;;0.29;96.90;100562.63;1786000;80;21140;-44
2021/04/26 01:49:38;;;;;;;0.60;0.60;;;;;;;0.28;96.97;100554.27;1785750;78;21114;-44
2021/04/26 01:52:11;;;;;;;0.30;0.30;;;;;;;0.28;97.01;100547.55;1785726;80;21146;-44
2021/04/26 01:54:39;;;;;;;0.10;0.10;;;;;;;0.27;97.03;100541.02;1785745;78;21134;-44
2021/04/26 01:57:07;;;;;;;0.50;0.50;;;;;;;0.27;97.06;100537.81;1755543;80;21150;-44
2021/04/26 01:59:37;;;;;;;1.95;1.27;;;;;;;0.27;97.08;100537.81;1785802;78;21165;-44
2021/04/26 02:02:04;;;;;;;0.65;0.65;;;;;;;0.25;97.11;100530.50;1785675;80;21122;-44
2021/04/26 02:04:35;;;;;;;0.20;0.20;;;;;;;0.25;97.20;100526.47;1731324;80;21145;-44
2021/04/26 02:07:07;;;;;;;0.10;0.10;;;;;;;0.27;97.27;100524.89;1774046;80;21122;-44
2021/04/26 02:09:40;;;;;;;0.23;0.23;;;;;;;0.28;97.27;100527.38;1774936;78;21585;-44
2021/04/26 02:12:11;;;;;;;0.45;0.45;;;;;;;0.28;97.31;100516.63;1785695;80;21505;-44
2021/04/26 02:14:44;;;;;;;0.50;0.50;;;;;;;0.28;97.39;100517.16;1785801;78;21130;-44
2021/04/26 02:17:13;;;;;;;1.25;1.15;;;;;;;0.29;97.43;100520.14;1755949;80;21117;-44
2021/04/26 02:19:42;;;;;;;0.10;0.10;;;;;;;0.31;97.46;100518.89;1785713;79;21141;-44
2021/04/26 02:22:11;;;;;;;0.30;0.25;;;;;;;0.35;97.53;100522.82;1785626;80;21421;-44
2021/04/26 02:24:55;;;;;;;0.10;0.10;;;;;;;0.39;97.61;100527.25;1785682;78;21114;-44
2021/04/26 02:27:25;;;;;;;0.10;0.10;;;;;;;0.42;97.72;100529.02;1785741;80;21150;-44
2021/04/26 02:29:53;;;;;;;1.27;1.22;;;;;;;0.48;97.78;100519.80;1755239;80;21122;-44
2021/04/26 02:32:31;;;;;;;1.98;1.37;;;;;;;0.52;97.78;100519.16;1785697;80;21157;-44
2021/04/26 02:35:10;;;;;;;0.98;0.70;;;;;;;0.56;97.85;100507.45;1779680;79;21197;-44
2021/04/26 02:37:56;;;;;;;0.65;0.65;;;;;;;0.61;97.87;100503.61;1755379;80;21125;-44
2021/04/26 02:40:23;;;;;;;2.42;2.10;;;;;;;0.64;97.86;100491.92;1754877;80;21158;-44
2021/04/26 02:42:54;;;;;;;1.85;1.75;;;;;;;0.68;97.82;100485.58;1754500;78;21102;-44
2021/04/26 02:45:25;;;;;;;1.62;1.50;;;;;;;0.71;97.76;100479.77;1785787;80;21168;-44
2021/04/26 02:47:52;;;;;;;4.37;1.82;;;;;;;0.73;97.75;100480.91;1755707;78;21146;-44
2021/04/26 02:50:26;;;;;;;0.70;0.70;;;;;;;0.74;97.76;100469.10;1785086;80;21110;-44
2021/04/26 02:52:56;;;;;;;7.65;2.10;;;;;;;0.75;97.73;100462.70;1770072;79;21166;-44
2021/04/26 02:55:24;;;;;;;3.87;2.55;;;;;;;0.76;97.75;100449.55;1785066;80;21146;-44
2021/04/26 02:57:55;;;;;;;1.80;1.70;;;;;;;0.79;97.78;100445.07;1754954;79;21184;-44
2021/04/26 03:00:23;;;;;;;1.00;0.93;;;;;;;0.81;97.86;100443.00;1753754;80;21209;-44
2021/04/26 03:03:09;;;;;;;0.57;0.57;;;;;;;0.84;97.94;100448.78;1785192;78;21284;-44
2021/04/26 03:05:36;;;;;;;0.50;0.50;;;;;;;0.91;98.10;100458.67;1753869;80;21493;-44
2021/04/26 03:08:05;;;;;;;0.17;0.17;;;;;;;0.98;98.14;100464.84;1729973;78;21768;-44
2021/04/26 03:10:33;;;;;;;0.30;0.30;;;;;;;1.05;98.06;100469.67;1754257;80;21137;-44
2021/04/26 03:13:02;;;;;;;0.05;0.05;;;;;;;1.11;98.10;100446.44;1730389;78;21161;-44
2021/04/26 03:15:30;;;;;;;0.62;0.62;;;;;;;1.17;98.27;100441.02;1785445;80;21118;-44
2021/04/26 03:17:59;;;;;;;1.70;1.10;;;;;;;1.23;98.32;100433.41;1785374;78;21106;-44
2021/04/26 03:20:27;;;;;;;0.25;0.25;;;;;;;1.31;98.39;100434.19;1785416;80;21103;-44
2021/04/26 03:23:10;;;;;;;0.93;0.93;;;;;;;1.44;98.56;100432.76;1842034;76;29077;-44
2021/04/26 03:25:38;;;;;;;0.47;0.47;;;;;;;1.46;98.61;100429.33;1727406;80;21117;-44
2021/04/26 03:28:06;;;;;;;0.17;0.17;;;;;;;1.54;98.67;100437.13;1754979;78;21118;-44
2021/04/26 03:30:36;;;;;;;0.20;0.20;;;;;;;1.62;98.61;100439.53;1785263;80;21624;-44
2021/04/26 03:33:15;;;;;;;0.33;0.33;;;;;;;1.75;98.60;100444.50;1880816;76;29140;-44
2021/04/26 03:35:43;;;;;;;1.10;1.10;;;;;;;1.77;98.60;100454.53;1755149;78;21113;-44
2021/04/26 03:38:11;;;;;;;0.00;0.00;;;;;;;1.82;98.57;100447.95;1824315;77;21243;-44
2021/04/26 03:40:40;;;;;;;0.47;0.47;;;;;;;1.87;98.56;100436.80;1792849;78;21676;-44
2021/04/26 03:43:08;;;;;;;0.25;0.25;;;;;;;2.00;99.11;100429.11;1767728;77;21095;-49
2021/04/26 03:45:40;;;;;;;0.85;0.85;;;;;;;2.12;99.17;100417.88;1820539;78;21071;-44
2021/04/26 03:48:27;;;;;;;0.60;0.60;;;;;;;2.24;99.61;100398.27;1819838;77;21513;-44
2021/04/26 03:50:59;;;;;;;0.20;0.20;;;;;;;2.45;100.00;100405.91;1823338;78;21553;-44
2021/04/26 03:53:27;;;;;;;2.08;1.25;;;;;;;2.67;100.00;100408.09;1824720;77;21116;-44
2021/04/26 03:55:58;;;;;;;1.37;0.82;;;;;;;2.84;100.00;100407.75;1822580;78;21553;-44
2021/04/26 03:58:26;;;;;;;0.17;0.17;;;;;;;2.99;100.00;100418.97;1824603;77;21064;-44
2021/04/26 04:00:54;;;;;;;0.17;0.17;;;;;;;3.12;100.00;100415.78;1790960;78;21123;-44
2021/04/26 04:03:22;;;;;;;0.47;0.47;;;;;;;3.16;99.71;100436.66;1824678;77;21099;-44
2021/04/26 04:05:50;;;;;;;0.60;0.60;;;;;;;3.18;99.51;100458.87;1824487;78;21130;-44
2021/04/26 04:08:36;;;;;;;0.25;0.25;;;;;;;3.16;99.34;100467.72;1824589;77;21130;-44
2021/04/26 04:11:21;;;;;;;0.00;0.00;;;;;;;3.14;99.30;100455.50;1824584;78;21494;-45
2021/04/26 04:14:08;;;;;;;0.00;0.00;;;;;;;3.13;99.31;100445.77;1819341;77;21100;-46
2021/04/26 04:16:36;;;;;;;3.90;0.70;;;;;;;3.10;99.35;100451.63;1824556;78;21098;-43
2021/04/26 04:19:03;;;;;;;1.55;0.90;;;;;;;3.08;99.56;100443.75;1824557;77;21118;-42
2021/04/26 04:21:33;;;;;;;1.22;1.22;;;;;;;3.08;99.78;100446.45;1824652;78;21091;-43
2021/04/26 04:24:00;;;;;;;0.20;0.20;;;;;;;3.13;100.00;100448.47;1824664;77;21130;-43
2021/04/26 04:26:29;;;;;;;0.72;0.68;;;;;;;3.16;100.00;100438.55;1824604;78;21115;-43
2021/04/26 04:29:02;;;;;;;0.23;0.23;;;;;;;3.20;100.00;100431.64;1823629;77;21079;-43
2021/04/26 04:31:32;;;;;;;2.00;0.70;;;;;;;3.25;100.00;100432.30;1820647;78;21204;-43
2021/04/26 04:34:03;;;;;;;0.65;0.62;;;;;;;3.29;100.00;100423.51;1761034;78;21464;-43
2021/04/26 04:36:39;;;;;;;0.13;0.13;;;;;;;3.32;100.00;100420.34;1796261;79;21105;-44
2021/04/26 04:39:24;;;;;;;0.60;0.60;;;;;;;3.34;100.00;100417.39;1765074;81;21142;-44
2021/04/26 04:42:10;;;;;;;0.13;0.13;;;;;;;3.36;100.00;100412.08;1786836;80;21137;-42
2021/04/26 04:44:38;;;;;;;0.47;0.47;;;;;;;3.40;100.00;100402.44;1786144;78;21157;-48
2021/04/26 04:47:05;;;;;;;0.10;0.10;;;;;;;3.43;100.00;100408.71;1786233;80;21146;-48
2021/04/26 04:49:33;;;;;;;0.03;0.03;;;;;;;3.45;100.00;100413.36;1761851;80;21125;-49
2021/04/26 04:52:01;;;;;;;0.30;0.30;;;;;;;3.49;100.00;100404.78;1786181;80;21416;-50
2021/04/26 04:54:28;;;;;;;0.47;0.47;;;;;;;3.52;100.00;100396.23;1786442;80;21410;-51
2021/04/26 04:56:57;;;;;;;0.47;0.47;;;;;;;3.54;100.00;100402.23;1786101;80;21141;-45
2021/04/26 04:59:27;;;;;;;0.82;0.82;;;;;;;3.52;100.00;100413.80;1786204;78;21418;-52
2021/04/26 05:02:05;;;;;;;0.13;0.13;;;;;;;3.51;100.00;100414.33;1785477;80;21121;-45
2021/04/26 05:04:51;;;;;;;0.17;0.17;;;;;;;3.52;100.00;100425.95;1786203;78;21117;-45
2021/04/26 05:07:40;;;;;;;0.10;0.10;;;;;;;3.54;100.00;100422.49;1847455;76;29505;-47
2021/04/26 05:10:27;;;;;;;0.20;0.20;;;;;;;3.47;100.00;100429.88;1721600;83;21596;-46
2021/04/26 05:13:14;;;;;;;0.10;0.10;;;;;;;3.41;100.00;100427.06;1695532;84;21260;-46
2021/04/26 05:15:43;;;;;;;0.40;0.40;;;;;;;3.38;100.00;100422.63;1693105;84;21149;-51
2021/04/26 05:18:12;;;;;;;0.05;0.05;;;;;;;3.34;100.00;100419.58;1695818;84;21571;-51
2021/04/26 05:20:40;;;;;;;0.23;0.23;;;;;;;3.17;100.00;100433.46;1706527;81;21429;-52
2021/04/26 05:23:09;;;;;;;0.00;0.00;;;;;;;2.97;100.00;100434.57;1706883;83;21176;-52
2021/04/26 05:25:38;;;;;;;0.10;0.10;;;;;;;2.82;100.00;100427.42;1715569;82;21660;-51
2021/04/26 05:28:06;;;;;;;0.40;0.40;;;;;;;2.63;99.89;100434.72;1715635;81;21138;-51
2021/04/26 05:30:34;;;;;;;0.40;0.40;;;;;;;2.44;99.76;100443.87;1723028;82;21133;-51
2021/04/26 05:33:02;;;;;;;0.30;0.30;;;;;;;2.27;99.69;100451.74;1709475;82;21467;-51
2021/04/26 05:35:47;;;;;;;0.33;0.33;;;;;;;2.08;99.54;100451.75;1884531;76;29533;-51
2021/04/26 05:38:17;;;;;;;0.10;0.10;;;;;;;1.85;99.63;100449.67;1829982;77;21152;-45
2021/04/26 05:40:48;;;;;;;0.03;0.03;;;;;;;1.70;99.79;100451.36;1849367;77;21578;-52
2021/04/26 05:43:15;;;;;;;0.00;0.00;;;;;;;1.54;99.89;100447.89;1811935;77;21434;-51
2021/04/26 05:45:44;;;;;;;0.00;0.00;;;;;;;1.40;99.89;100461.16;1831072;77;21138;-52
2021/04/26 05:48:27;;;;;;;0.05;0.05;;;;;;;1.26;99.95;100459.06;1835008;76;29047;-51
2021/04/26 05:50:55;;;;;;;0.17;0.17;;;;;;;1.05;99.95;100483.95;1701084;83;21477;-52
2021/04/26 05:53:22;;;;;;;0.20;0.20;;;;;;;0.90;100.00;100510.84;1716358;81;21118;-52
2021/04/26 05:55:51;;;;;;;0.00;0.00;;;;;;;0.81;100.00;100521.01;1701558;83;21503;-52
2021/04/26 05:58:18;;;;;;;0.08;0.08;;;;;;;0.76;100.00;100529.72;1721218;83;21209;-52
2021/04/26 06:00:46;;;;;;;0.13;0.13;;;;;;;0.72;100.00;100523.12;1723754;83;21122;-52
2021/04/26 06:03:14;;;;;;;0.08;0.08;;;;;;;0.73;100.00;100514.01;1730918;80;21604;-51
2021/04/26 06:05:41;;;;;;;0.10;0.10;;;;;;;0.71;100.00;100487.84;1781712;80;21187;-52
2021/04/26 06:08:10;;;;;;;0.10;0.10;;;;;;;0.69;100.00;100475.12;1749763;80;21337;-52
2021/04/26 06:10:38;;;;;;;1.10;0.70;;;;;;;0.66;100.00;100474.20;1703436;84;21117;-49
2021/04/26 06:13:06;;;;;;;0.00;0.00;;;;;;;0.60;100.00;100474.55;1703148;84;21150;-50
2021/04/26 06:15:34;;;;;;;0.03;0.03;;;;;;;0.58;100.00;100481.18;1703252;84;21131;-51
2021/04/26 06:18:13;;;;;;;0.10;0.10;;;;;;;0.57;100.00;100479.52;1724204;81;21468;-51
2021/04/26 06:20:42;;;;;;;0.10;0.10;;;;;;;0.58;100.00;100489.25;1732269;82;21184;-51
2021/04/26 06:23:09;;;;;;;0.10;0.10;;;;;;;0.58;100.00;100493.28;1732465;82;21332;-51
2021/04/26 06:25:37;;;;;;;2.17;1.00;;;;;;;0.58;100.00;100485.22;1750658;81;21441;-49
2021/04/26 06:28:08;;;;;;;0.10;0.10;;;;;;;0.60;100.00;100484.48;1724218;83;21138;-49
2021/04/26 06:30:37;;;;;;;0.20;0.20;;;;;;;0.60;100.00;100479.11;1724365;83;21138;-50
2021/04/26 06:33:05;;;;;;;0.10;0.10;;;;;;;0.57;100.00;100477.67;1750829;81;21163;-51
2021/04/26 06:35:33;;;;;;;0.08;0.08;;;;;;;0.55;100.00;100469.52;1719473;83;21686;-51
2021/04/26 06:38:00;;;;;;;0.00;0.00;;;;;;;0.56;100.00;100481.91;1682717;84;21186;-50
2021/04/26 06:40:28;;;;;;;0.10;0.10;;;;;;;0.53;100.00;100472.92;1702958;84;21151;-46
2021/04/26 06:42:56;;;;;;;0.10;0.10;;;;;;;0.50;100.00;100484.11;1703053;84;21644;-45
2021/04/26 06:45:23;;;;;;;0.10;0.10;;;;;;;0.49;100.00;100483.79;1728069;80;21131;-51
2021/04/26 06:47:54;;;;;;;0.10;0.10;;;;;;;0.51;100.00;100485.75;1726107;83;21169;-50
2021/04/26 06:50:22;;;;;;;0.00;0.00;;;;;;;0.53;100.00;100479.12;1735311;82;21655;-51
2021/04/26 06:52:50;;;;;;;0.00;0.00;;;;;;;0.61;100.00;100491.50;1727104;82;21184;-50
2021/04/26 06:55:18;;;;;;;0.03;0.03;;;;;;;0.71;100.00;100489.19;1760481;81;21140;-51
2021/04/26 06:57:45;;;;;;;0.00;0.00;;;;;;;0.81;100.00;100488.20;1760492;81;21635;-49
2021/04/26 07:00:14;;;;;;;0.00;0.00;;;;;;;0.95;100.00;100501.61;1759650;81;21139;-49
2021/04/26 07:02:41;;;;;;;0.13;0.13;;;;;;;1.06;100.00;100502.26;1759724;81;21130;-49
2021/04/26 07:05:10;;;;;;;0.35;0.35;;;;;;;1.17;100.00;100509.66;1759921;81;21146;-50
2021/04/26 07:07:37;;;;;;;0.00;0.00;;;;;;;1.29;100.00;100510.63;1760048;81;21717;-49
2021/04/26 07:10:07;;;;;;;0.00;0.00;;;;;;;1.41;100.00;100510.77;1761000;80;21141;-50
2021/04/26 07:12:34;;;;;;;0.00;0.00;;;;;;;1.50;100.00;100508.61;1760287;81;21142;-49
2021/04/26 07:15:03;;;;;;;0.00;0.00;;;;;;;1.55;100.00;100508.78;1761393;78;21153;-50
2021/04/26 07:17:30;;;;;;;0.00;0.00;;;;;;;1.60;100.00;100508.95;1774280;80;21436;-50
2021/04/26 07:19:58;;;;;;;0.00;0.00;;;;;;;1.61;100.00;100513.31;1789318;80;21157;-50
2021/04/26 07:22:26;;;;;;;0.03;0.03;;;;;;;1.62;100.00;100518.17;1781678;78;21137;-51
2021/04/26 07:24:53;;;;;;;0.10;0.10;;;;;;;1.60;100.00;100515.69;1726580;82;21109;-51
2021/04/26 07:27:21;;;;;;;0.00;0.00;;;;;;;1.60;100.00;100517.03;1726398;82;21170;-51
2021/04/26 07:29:49;;;;;;;0.10;0.10;;;;;;;1.61;100.00;100522.74;1741228;82;22023;-51
2021/04/26 07:32:16;;;;;;;0.05;0.05;;;;;;;1.61;100.00;100538.91;1741310;82;21504;-51
2021/04/26 07:34:43;;;;;;;0.10;0.10;;;;;;;1.62;100.00;100540.54;1769211;80;21639;-52
2021/04/26 07:37:11;;;;;;;0.60;0.60;;;;;;;1.61;100.00;100537.56;1760057;81;21161;-52
2021/04/26 07:39:38;;;;;;;0.30;0.30;;;;;;;1.60;100.00;100535.07;1760108;81;21441;-52
2021/04/26 07:42:07;;;;;;;1.00;0.28;;;;;;;1.55;100.00;100538.41;1760401;81;21224;-52
2021/04/26 07:44:36;;;;;;;0.03;0.03;;;;;;;1.53;100.00;100551.27;1706908;82;21141;-52
2021/04/26 07:47:03;;;;;;;0.25;0.25;;;;;;;1.51;100.00;100552.03;1759119;80;21213;-52
2021/04/26 07:49:31;;;;;;;0.20;0.20;;;;;;;1.51;100.00;100564.15;1755099;81;21681;-51
2021/04/26 07:52:00;;;;;;;0.20;0.20;;;;;;;1.52;100.00;100563.09;1763694;80;21161;-50
2021/04/26 07:54:27;;;;;;;0.10;0.10;;;;;;;1.54;100.00;100565.58;1780214;80;21122;-49
2021/04/26 07:56:55;;;;;;;0.00;0.00;;;;;;;1.56;100.00;100574.25;1779297;80;21568;-48
2021/04/26 07:59:23;;;;;;;0.28;0.28;;;;;;;1.61;100.00;100578.48;1729201;82;21125;-49
2021/04/26 08:01:50;;;;;;;0.20;0.20;;;;;;;1.61;100.00;100577.96;1773936;79;21152;-48
2021/04/26 08:04:17;;;;;;;0.00;0.00;;;;;;;1.61;100.00;100572.58;1755911;80;21133;-48
2021/04/26 08:06:45;;;;;;;0.00;0.00;;;;;;;1.61;100.00;100575.80;1721555;83;21447;-48
2021/04/26 08:09:12;;;;;;;0.00;0.00;;;;;;;1.60;100.00;100600.53;1703325;84;21141;-48
2021/04/26 08:11:42;;;;;;;0.00;0.00;;;;;;;1.60;100.00;100600.53;1729471;82;21170;-49
2021/04/26 08:14:09;;;;;;;0.10;0.10;;;;;;;1.60;100.00;100611.31;1786268;80;21126;-48
2021/04/26 08:16:39;;;;;;;0.10;0.10;;;;;;;1.60;100.00;100597.02;1763826;80;21504;-48
2021/04/26 08:19:06;;;;;;;0.00;0.00;;;;;;;1.63;100.00;100590.70;1780089;80;21133;-49
2021/04/26 08:21:33;;;;;;;0.00;0.00;;;;;;;1.69;100.00;100601.12;1786004;80;21176;-48
2021/04/26 08:24:01;;;;;;;0.10;0.10;;;;;;;1.75;100.00;100608.31;1785669;80;21139;-48
2021/04/26 08:26:28;;;;;;;0.08;0.08;;;;;;;1.77;100.00;100606.77;1785952;80;21480;-48
2021/04/26 08:28:56;;;;;;;0.10;0.10;;;;;;;1.78;100.00;100625.92;1786162;80;21118;-48
2021/04/26 08:31:25;;;;;;;0.00;0.00;;;;;;;1.79;100.00;100628.94;1800066;78;21093;-48
2021/04/26 08:33:53;;;;;;;0.10;0.10;;;;;;;1.79;100.00;100643.75;1818247;78;21111;-47
2021/04/26 08:36:22;;;;;;;0.30;0.30;;;;;;;1.81;100.00;100648.41;1758789;78;21173;-48
2021/04/26 08:38:50;;;;;;;0.10;0.10;;;;;;;1.81;100.00;100660.53;1754943;81;21207;-48
2021/04/26 08:41:18;;;;;;;0.00;0.00;;;;;;;1.80;100.00;100663.72;1754771;81;21152;-47
2021/04/26 08:43:46;;;;;;;0.23;0.20;;;;;;;1.79;100.00;100660.73;1754853;81;21113;-48
2021/04/26 08:46:14;;;;;;;0.10;0.10;;;;;;;1.80;100.00;100667.77;1761740;78;21128;-47
2021/04/26 08:48:42;;;;;;;0.50;0.50;;;;;;;1.83;100.00;100663.81;1772892;79;21641;-47
2021/04/26 08:51:10;;;;;;;0.10;0.10;;;;;;;1.84;100.00;100669.00;1730589;82;21102;-47
2021/04/26 08:53:38;;;;;;;0.10;0.10;;;;;;;1.87;100.00;100663.70;1788946;80;21116;-47
2021/04/26 08:56:07;;;;;;;0.13;0.13;;;;;;;1.90;100.00;100660.06;1755043;80;21122;-47
2021/04/26 08:58:35;;;;;;;0.10;0.10;;;;;;;1.98;100.00;100661.67;1754121;81;21137;-47
2021/04/26 09:01:03;;;;;;;0.00;0.00;;;;;;;2.05;100.00;100658.41;1753560;81;21141;-47
2021/04/26 09:03:34;;;;;;;0.20;0.20;;;;;;;2.13;100.00;100660.02;1754327;81;21168;-46
2021/04/26 09:06:02;;;;;;;0.00;0.00;;;;;;;2.19;100.00;100660.47;1754517;81;21165;-46
2021/04/26 09:08:29;;;;;;;0.00;0.00;;;;;;;2.24;100.00;100657.13;1753507;80;21935;-46
2021/04/26 09:11:07;;;;;;;0.10;0.10;;;;;;;2.33;100.00;100657.16;1741451;82;21172;-46
2021/04/26 09:13:42;;;;;;;0.10;0.10;;;;;;;2.43;100.00;100662.88;1741570;82;21574;-46
2021/04/26 09:16:17;;;;;;;1.07;1.00;;;;;;;2.56;100.00;100665.45;1741663;81;21151;-46
2021/04/26 09:18:47;;;;;;;0.20;0.20;;;;;;;2.68;100.00;100658.00;1726466;82;21148;-46
2021/04/26 09:21:30;;;;;;;0.13;0.13;;;;;;;2.82;100.00;100662.22;1783421;80;21137;-46
2021/04/26 09:24:25;;;;;;;0.33;0.33;;;;;;;2.95;100.00;100659.38;1785397;80;21647;-46
2021/04/26 09:27:02;;;;;;;0.08;0.08;;;;;;;3.03;100.00;100670.40;1760715;80;21145;-47
2021/04/26 09:29:32;;;;;;;0.10;0.10;;;;;;;3.19;100.00;100664.92;1736150;81;21118;-46
2021/04/26 09:32:16;;;;;;;0.00;0.00;;;;;;;3.29;100.00;100663.89;1771078;80;21216;-45
2021/04/26 09:34:50;;;;;;;0.00;0.00;;;;;;;3.31;100.00;100667.16;1776271;80;21480;-45
2021/04/26 09:37:24;;;;;;;0.00;0.00;;;;;;;3.33;100.00;100673.17;1789185;80;21193;-45
2021/04/26 09:40:14;;;;;;;0.03;0.03;;;;;;;3.35;100.00;100675.13;1761200;80;21145;-45
2021/04/26 09:42:50;;;;;;;0.30;0.30;;;;;;;3.38;100.00;100679.25;1763332;80;21121;-44
2021/04/26 09:45:30;;;;;;;0.40;0.40;;;;;;;3.41;100.00;100676.94;1771512;80;21121;-44
2021/04/26 09:48:26;;;;;;;0.10;0.10;;;;;;;3.47;100.00;100687.89;1760010;81;21111;-44
2021/04/26 09:51:05;;;;;;;0.10;0.10;;;;;;;3.56;100.00;100687.86;1774131;80;21133;-44
2021/04/26 09:53:45;;;;;;;;;;;;;;;3.61;99.68;100679.89;1762346;81;21549;-44
2021/04/26 09:56:27;;;;;;;0.00;0.00;;;;;;;3.64;99.38;100678.92;1782485;80;20254;-44
2021/04/26 09:58:57;;;;;;;0.20;0.20;;;;;;;3.73;99.38;100681.30;1714749;82;21169;-44
2021/04/26 10:01:27;;;;;;;0.17;0.17;;;;;;;3.83;98.80;100683.78;1784421;80;21141;-44
2021/04/26 10:03:56;;;;;;;0.20;0.20;;;;;;;3.92;97.68;100679.39;1734390;81;21141;-44
2021/04/26 10:06:26;;;;;;;0.13;0.13;;;;;;;4.02;98.39;100685.06;1711447;82;21188;-44
2021/04/26 10:09:00;;;;;;;0.45;0.45;;;;;;;4.17;96.97;100694.11;1715248;80;21170;-44
2021/04/26 10:11:30;;;;;;;0.20;0.20;;;;;;;4.24;95.92;100686.19;1744578;80;21126;-44
2021/04/26 10:14:08;;;;;;;0.10;0.10;;;;;;;4.34;96.26;100684.27;1735684;80;21133;-44
2021/04/26 10:17:01;;;;;;;0.03;0.03;;;;;;;4.49;95.95;100695.47;1734939;82;21148;-44
2021/04/26 10:19:46;;;;;;;0.27;0.27;;;;;;;4.60;93.63;100697.06;1741358;81;21200;-44
2021/04/26 10:22:15;;;;;;;0.10;0.10;;;;;;;4.59;92.37;100693.54;1741244;82;21491;-43
2021/04/26 10:24:55;;;;;;;0.10;0.10;;;;;;;4.61;91.58;100715.79;1753452;81;21110;-44
2021/04/26 10:27:37;;;;;;;0.00;0.00;;;;;;;4.65;90.47;100714.27;1775019;80;21141;-44
2021/04/26 10:30:14;;;;;;;0.05;0.05;;;;;;;4.70;89.98;100708.16;1791008;79;21591;-44
2021/04/26 10:33:02;;;;;;;0.10;0.10;;;;;;;4.71;88.48;100720.09;1790942;80;21580;-44
2021/04/26 10:35:47;;;;;;;0.10;0.10;;;;;;;4.79;88.66;100717.56;1742918;80;21135;-44
2021/04/26 10:38:46;;;;;;;0.00;0.00;;;;;;;5.03;88.27;100723.00;1758977;80;21158;-44
2021/04/26 10:41:47;;;;;;;0.03;0.03;;;;;;;5.21;86.75;100722.86;1779362;80;21528;-44
2021/04/26 10:44:41;;;;;;;0.08;0.08;;;;;;;5.23;86.03;100722.63;1774834;80;21538;-44
2021/04/26 10:47:24;;;;;;;0.00;0.00;;;;;;;5.26;85.39;100732.98;1781062;78;21175;-44
2021/04/26 10:50:07;;;;;;;0.23;0.23;;;;;;;5.38;84.68;100735.16;1805396;76;22763;-44
2021/04/26 10:52:40;;;;;;;0.00;0.00;;;;;;;5.40;84.88;100738.45;1784946;80;21514;-44
2021/04/26 10:55:14;;;;;;;0.17;0.17;;;;;;;5.46;83.54;100730.71;1785060;80;21131;-45
2021/04/26 10:57:57;;;;;;;0.42;0.42;;;;;;;5.52;82.92;100732.48;1781862;79;21145;-44
2021/04/26 11:00:30;;;;;;;0.35;0.35;;;;;;;5.58;81.63;100730.70;1785696;80;21488;-45
2021/04/26 11:03:12;;;;;;;0.10;0.10;;;;;;;5.67;81.24;100731.98;1760119;80;21632;-45
2021/04/26 11:05:45;;;;;;;0.03;0.03;;;;;;;5.76;80.42;100733.26;1775699;80;21130;-44
2021/04/26 11:13:47;;;;;;;0.25;0.10;;;;;;;6.07;79.51;100729.80;1829350;76;22807;-45
2021/04/26 11:16:23;;;;;;;1.55;1.07;;;;;;;6.05;78.92;100740.61;1780599;78;21133;-45
2021/04/26 11:19:02;;;;;;;0.13;0.13;;;;;;;6.10;80.10;100738.81;1775878;80;21131;-45
2021/04/26 11:21:50;;;;;;;0.23;0.23;;;;;;;6.24;79.27;100737.98;1760478;80;21553;-45
2021/04/26 11:24:28;;;;;;;0.70;0.20;;;;;;;6.28;77.91;100728.81;1768927;80;21156;-45
2021/04/26 11:27:14;;;;;;;0.10;0.10;;;;;;;6.30;78.32;100734.28;1751398;81;21452;-45
2021/04/26 11:29:49;;;;;;;0.00;0.00;;;;;;;6.45;77.81;100735.09;1705431;83;21561;-45
2021/04/26 11:32:19;;;;;;;0.00;0.00;;;;;;;6.63;76.46;100734.88;1732787;82;21161;-45
2021/04/26 11:34:59;;;;;;;0.10;0.10;;;;;;;6.84;76.65;100729.77;1729925;82;21153;-44
2021/04/26 11:37:24;;;;;;;0.17;0.17;;;;;;;7.03;75.58;100720.83;1732378;82;21177;-45
2021/04/26 11:39:54;;;;;;;0.08;0.08;;;;;;;7.14;75.10;100735.37;1730591;82;21125;-45
2021/04/26 11:42:27;;;;;;;0.42;0.10;;;;;;;7.20;74.73;100732.48;1727794;82;21173;-44
2021/04/26 11:44:55;;;;;;;0.00;0.00;;;;;;;7.36;73.95;100734.88;1702589;82;21114;-44
2021/04/26 11:47:23;;;;;;;0.10;0.10;;;;;;;7.66;74.06;100737.71;1712584;82;21165;-45
2021/04/26 11:50:00;;;;;;;0.00;0.00;;;;;;;7.82;73.76;100738.73;1728990;82;21433;-44
2021/04/26 11:52:30;;;;;;;0.00;0.00;;;;;;;7.96;72.16;100731.29;1732827;82;21573;-45
2021/04/26 11:55:06;;;;;;;0.15;0.00;;;;;;;8.22;69.23;100737.00;1722784;81;21160;-45
2021/04/26 11:57:49;;;;;;;0.13;0.10;;;;;;;8.39;68.59;100734.17;1704259;82;22104;-45